Aviation Digital Data Service (ADDS)

Output produced by METARs form (1849 UTC 28 August 2016)
found at http://aviationweather.gov/adds/metars/
 
KCDW 281753Z 26005KT 10SM SCT047 30/18 A3023 RMK AO2 SLP241 T03000178 10306 20200 57016
KMMU 281845Z 24009G15KT 20SM FEW070 31/18 A3021
KFWN 281753Z AUTO 19007KT 10SM CLR 29/18 A3023 RMK AO2 SLP235 60000 T02940178 10294 20172 58015
KTEB 281751Z 21011KT 10SM CLR 32/14 A3021 RMK AO2 SLP230 T03220139 10328 20222 57015
KTEB 281732Z 2818/2918 20005KT P6SM SCT250 
     FM282000 17008KT P6SM SCT250 
     FM282300 18005KT P6SM SCT250 
     FM290400 VRB03KT P6SM SCT100 BKN250 
     FM291500 29007KT P6SM SCT050 SCT100 BKN250
       
KEWR 281751Z 15009G16KT 10SM SCT045 SCT250 29/18 A3022 RMK AO2 SLP234 T02940178 10300 20239 56015
KEWR 281828Z 2818/2924 15010KT P6SM SCT250 
     FM282300 18006KT P6SM SCT250 
     FM290900 24005KT P6SM SCT100 BKN250 
     FM291500 29009KT P6SM SCT050 SCT100 BKN250 
     FM291800 29012G18KT P6SM SCT050 SCT100 BKN250
       
KDXR 281753Z 25006KT 10SM CLR 28/17 A3025 RMK AO2 SLP239 T02780167 10278 20183 56017
KHPN 281756Z 19006G14KT 10SM FEW030 29/17 A3024 RMK AO2 SLP233 T02890172 10294 20222 57016
KHPN 281732Z 2818/2918 16005KT P6SM SCT250 
     FM281900 16008KT P6SM SCT250 
     FM290000 VRB04KT P6SM SCT100 BKN250 
     FM291500 30007KT P6SM SCT050 SCT100 BKN250 AMD NOT SKED
       
KABE 281751Z 22008KT 10SM CLR 31/16 A3023 RMK AO2 SLP233 T03060156 10311 20189 58016 $
KABE 281726Z 2818/2918 21006KT P6SM FEW040 
     FM282300 VRB02KT P6SM SKC 
     FM291400 31007KT P6SM SCT040
       
KAVP 281754Z 21008KT 10SM CLR 30/17 A3023 RMK AO2 SLP227 T03000167 10300 20217 58016
KAVP 281738Z 2818/2918 22008KT P6SM SCT050 
     FM290000 20004KT P6SM SCT040 BKN080 
     FM290900 VRB04KT P6SM SCT025 BKN040 
     FM291500 33007KT P6SM SCT050
       
KSWF 281845Z 26006G16KT 20SM FEW080 30/19 A3022
KSWF 281732Z 2818/2924 21005KT P6SM SCT250 
     FM281900 22009KT P6SM SCT250 
     FM290000 VRB04KT P6SM SCT100 BKN250 
     FM291300 27006KT P6SM BKN080 AMD NOT SKED
       
KMSV 281835Z AUTO 23007KT 10SM CLR 28/17 A3026 RMK AO1
KPOU 281753Z 20006KT 10SM CLR 29/16 A3020 RMK AO2 SLP224 T02890161 10294 20194 56019
KPOU 281720Z 2818/2918 22006KT P6SM FEW150 SCT250 
     FM290200 16003KT P6SM SCT050 SCT150 BKN250 
     FM291500 31008KT P6SM SKC
       
KACY 281754Z 11007KT 050V170 10SM CLR 31/18 A3024 RMK AO2 SLP239 T03060178 10306 20222 56008
KACY 281726Z 2818/2918 10008KT P6SM FEW040 
     FM290000 14004KT P6SM SKC 
     TEMPO 2907/2911 4SM BR 
     FM291500 29008KT P6SM SCT040
       
KGON 281756Z 19007KT 10SM CLR 27/16 A3024 RMK AO2 SLP241 T02670156 10272 20233 56013
KGON 281732Z 2818/2918 17009KT P6SM SCT250 
     FM282300 18005KT P6SM SCT250 
     FM290200 VRB04KT P6SM SCT100 BKN250 
     FM291500 27007KT P6SM SCT050 SCT100 BKN250
       


 (Extracted from FBUS31 KWNO 281401)
FD1US1
DATA BASED ON 281200Z    
VALID 281800Z   FOR USE 1400-2100Z. TEMPS NEG ABV 24000

FT  3000    6000    9000   12000   18000   24000  30000  34000  39000
BDL 2010 2610+15 2908+12 3016+06 2726-06 2630-17 253533 243943 254154
BGR 1911 2510+10 2817+08 2923+03 2833-08 2746-18 276233 276643 267354
CAR 1912 2011+09 2618+05 2730+01 2834-09 2847-20 276735 278444 279655
PWM 1910 2611+11 2815+10 2922+05 2732-07 2742-17 274833 265543 255754
EMI 1506 0505+17 0508+12 3609+06 2711-06 2313-18 202433 213442 213754
ACK 0608 0208+13 3607+13 3409+07 2823-06 2724-16 252932 253142 253454
BOS 1907 2808+13 3109+12 3017+06 2729-06 2734-17 263833 254242 254355
BML 1912 2518+13 2723+09 2826+04 2733-08 2647-18 265833 266543 266855
ACY 1209 0608+16 0511+12 0410+07 2709-05 2212-17 211932 212841 223154
ALB 1913 2515+16 2816+11 2922+05 2727-07 2538-18 254433 244843 244754
BUF 2616 2720+16 2723+10 2728+05 2534-08 2538-19 245033 245443 235854
JFK 2105 9900+16 0306+13 3407+07 2718-06 2421-17 232532 243442 243854
PLB 2016 2420+15 2625+09 2728+04 2736-08 2647-19 256434 256943 257354
SYR 2311 2520+16 2623+10 2728+05 2734-08 2539-19 245433 245343 245554
CLE 9900 2807+15 2813+10 2717+05 2524-08 2428-19 233633 233143 222453
CMH 9900 9900+18 2807+11 2613+05 2214-08 2222-19 213034 222743 221953
CVG 9900 9900+17 9900+11 2207+05 2109-08 2312-19 210833 990042 290752
AGC 9900 2305+18 2706+11 2913+06 2316-08 2324-18 222833 213143 213653
AVP 2011 2808+15 3009+12 3115+06 2619-07 2528-18 233533 233942 234254
PSB      2706+17 2909+11 2913+06 2418-07 2429-18 233333 223542 223853
ORF 0712 0910+16 0721+12 0718+07 0815-06 1116-17 162331 173141 173054
RIC 0708 0816+18 0718+13 0621+06 0810-06 1312-18 172232 183241 183253
ROA 0805 0712+17 0716+12 0714+06 1305-06 1611-18 171733 171942 172453
CRW 9900 0808+18 0607+11 9900+06 2012-07 2118-18 212133 202643 202852
EKN      0405+18 0905+12 9900+06 2212-07 2219-18 202334 202542 202953


 (Extracted from FBUS33 KWNO 281401)
FD3US3
DATA BASED ON 281200Z    
VALID 290000Z   FOR USE 2100-0600Z. TEMPS NEG ABV 24000

FT  3000    6000    9000   12000   18000   24000  30000  34000  39000
BDL 2418 3115+17 2914+11 2914+05 2723-08 2534-17 254333 255142 255854
BGR 2223 2719+14 2926+09 2826+03 2736-09 2846-19 276334 266744 267554
CAR 2032 2522+12 2732+07 2834+02 2735-10 2844-21 276935 278445 269855
PWM 2219 2818+15 2820+10 2820+04 2834-08 2743-18 265533 265943 266554
EMI 1705 3608+17 3605+12 9900+06 2409-06 2312-17 232332 233541 223854
ACK 9900 3410+15 3009+13 2810+07 2820-06 2628-17 263332 264242 264954
BOS 2215 3015+17 2916+11 2815+05 2826-07 2636-17 264533 265442 266154
BML 1920 2529+14 2729+09 2727+04 2834-08 2745-19 266034 266744 257754
ACY 9900 0206+17 0205+13 0507+07 2705-05 2311-17 232331 243141 233154
ALB 2320 2621+15 2821+10 2822+05 2726-08 2632-18 263833 264643 255655
BUF 2720 2719+15 2724+10 2725+04 2828-08 2640-19 254633 244743 254954
JFK 2410 3211+17 3107+12 2905+06 2615-06 2522-17 243032 243842 244354
PLB 2224 2428+15 2726+09 2730+03 2735-08 2745-20 265934 257244 258954
SYR 2513 2619+15 2726+09 2727+04 2737-07 2645-18 245133 245544 246255
CLE 2906 2911+17 2812+10 2911+05 2721-08 2625-18 272833 262943 253453
CMH 2707 2605+15 9900+10 3007+05 2606-08 2311-17 241733 271943 291754
CVG 3608 9900+18 9900+12 2206+05 2607-09 9900-18 260532 340943 310553
AGC 9900 2806+16 2609+11 3011+06 2515-08 2420-18 242732 243143 234253
AVP 2513 3018+16 2812+11 2812+06 2624-07 2534-17 253432 253743 245054
PSB      2711+17 2712+11 2811+05 2819-08 2524-17 243033 243343 234654
ORF 0710 1008+15 0913+12 0814+07 0818-06 1114-17 171631 182541 182353
RIC 0707 0707+18 0712+12 0617+07 0814-06 1211-17 201331 192441 192754
ROA 0905 0608+18 0711+12 0716+06 1110-06 1306-17 201032 192342 192153
CRW 0207 0408+18 0906+11 1106+05 2310-07 2114-18 231232 221342 211553
EKN      9900+18 9900+12 9900+06 2208-07 2310-18 241533 221942 212553